Time;durP1;ratioP1;P1;durP2;ratioP2;P2;SDS_P1;SDS_P2;PMS_P1;PMS_P2;Temp;Humidity;BMP_temperature;BMP_pressure;BME280_temperature;BME280_humidity;BME280_pressure;Samples;Min_cycle;Max_cycle;Signal;HPM_P1;HPM_P2
2022/07/27 00:02:12;;;;;;;4.13;0.70;;;15.20;82.80;;;;;;5075997;28;20036;-80
2022/07/27 00:04:38;;;;;;;5.20;0.80;;;15.10;82.80;;;;;;5075982;28;20082;-79
2022/07/27 00:07:04;;;;;;;2.83;0.98;;;15.10;82.90;;;;;;5058186;28;20468;-80
2022/07/27 00:09:29;;;;;;;6.18;1.15;;;15.10;82.90;;;;;;5075084;28;20024;-79
2022/07/27 00:11:55;;;;;;;3.70;0.90;;;15.10;82.90;;;;;;5075696;28;20043;-79
2022/07/27 00:14:20;;;;;;;4.07;0.80;;;15.10;83.10;;;;;;5091656;28;20025;-79
2022/07/27 00:16:46;;;;;;;2.45;1.08;;;15.10;83.20;;;;;;5091185;28;20020;-79
2022/07/27 00:19:11;;;;;;;2.30;0.80;;;15.10;83.30;;;;;;5075810;28;20392;-79
2022/07/27 00:21:37;;;;;;;8.25;0.90;;;15.10;83.30;;;;;;5074565;28;20059;-79
2022/07/27 00:24:03;;;;;;;3.22;0.90;;;15.00;83.30;;;;;;5075635;28;20461;-79
2022/07/27 00:26:28;;;;;;;3.75;0.75;;;15.10;83.50;;;;;;5075683;28;20020;-79
2022/07/27 00:28:54;;;;;;;6.65;1.15;;;15.00;83.60;;;;;;5075669;28;20485;-80
2022/07/27 00:31:19;;;;;;;5.45;0.80;;;15.00;83.70;;;;;;5074328;28;20032;-79
2022/07/27 00:33:45;;;;;;;3.67;0.90;;;15.00;83.90;;;;;;5075599;28;20107;-79
2022/07/27 00:36:11;;;;;;;12.25;1.45;;;15.00;83.90;;;;;;5075522;28;20108;-79
2022/07/27 00:38:37;;;;;;;2.70;0.68;;;14.90;84.00;;;;;;5075319;28;20035;-79
2022/07/27 00:41:03;;;;;;;3.72;0.90;;;14.90;84.10;;;;;;5075421;28;20481;-79
2022/07/27 00:43:28;;;;;;;4.05;0.88;;;14.90;84.40;;;;;;5073906;28;20036;-79
2022/07/27 00:45:54;;;;;;;4.15;0.82;;;14.90;84.60;;;;;;5075198;28;20029;-79
2022/07/27 00:48:20;;;;;;;5.85;1.10;;;14.80;84.60;;;;;;5090876;28;20107;-79
2022/07/27 00:50:46;;;;;;;5.53;1.20;;;14.80;84.70;;;;;;5075106;28;20032;-79
2022/07/27 00:53:12;;;;;;;3.97;0.80;;;14.80;84.80;;;;;;5075120;28;20119;-79
2022/07/27 00:55:39;;;;;;;1.90;0.70;;;14.80;84.90;;;;;;5075316;28;20107;-79
2022/07/27 00:58:10;;;;;;;4.03;1.00;;;14.70;84.90;;;;;;5074831;28;20079;-79
2022/07/27 01:00:36;;;;;;;4.60;1.20;;;14.60;84.90;;;;;;5074970;28;20107;-79
2022/07/27 01:03:03;;;;;;;4.80;1.35;;;14.60;84.90;;;;;;5056891;28;20476;-79
2022/07/27 01:05:28;;;;;;;7.85;1.20;;;14.60;85.10;;;;;;5056945;28;20021;-79
2022/07/27 01:07:54;;;;;;;5.10;1.35;;;14.60;85.40;;;;;;5074848;28;20036;-79
2022/07/27 01:10:20;;;;;;;3.65;1.15;;;14.50;85.60;;;;;;5073400;28;20028;-80
2022/07/27 01:12:46;;;;;;;3.97;1.20;;;14.40;85.80;;;;;;5074865;28;20052;-80
2022/07/27 01:15:12;;;;;;;4.32;1.50;;;14.50;86.30;;;;;;5074641;28;20103;-79
2022/07/27 01:17:37;;;;;;;6.35;1.00;;;14.40;86.60;;;;;;5074749;28;20073;-79
2022/07/27 01:20:04;;;;;;;4.00;1.27;;;14.40;86.50;;;;;;5074588;28;20108;-79
2022/07/27 01:22:30;;;;;;;3.42;0.93;;;14.30;86.50;;;;;;5074375;28;20169;-79
2022/07/27 01:24:55;;;;;;;2.38;1.10;;;14.30;86.70;;;;;;5074572;28;20071;-79
2022/07/27 01:27:21;;;;;;;6.90;1.25;;;14.30;87.50;;;;;;5073861;28;20028;-78
2022/07/27 01:29:47;;;;;;;6.95;0.95;;;14.20;87.00;;;;;;5090384;28;20064;-79
2022/07/27 01:32:13;;;;;;;5.18;1.10;;;14.30;87.20;;;;;;5074301;28;20110;-79
2022/07/27 01:34:38;;;;;;;3.92;1.20;;;14.20;87.30;;;;;;5089968;28;20526;-80
2022/07/27 01:37:04;;;;;;;5.30;1.27;;;14.20;87.60;;;;;;5074226;28;20021;-79
2022/07/27 01:39:31;;;;;;;5.35;1.00;;;14.20;87.80;;;;;;5074194;28;20028;-79
2022/07/27 01:41:57;;;;;;;7.72;1.67;;;14.10;88.00;;;;;;5074239;28;20522;-79
2022/07/27 01:44:23;;;;;;;4.82;1.25;;;14.10;88.10;;;;;;5073208;28;20476;-79
2022/07/27 01:46:49;;;;;;;6.70;1.10;;;14.10;88.40;;;;;;5056166;28;20060;-79
2022/07/27 01:49:14;;;;;;;3.78;1.05;;;14.10;88.50;;;;;;5072702;28;20024;-79
2022/07/27 01:51:40;;;;;;;4.00;0.90;;;14.10;88.80;;;;;;5073921;28;20050;-79
2022/07/27 01:54:06;;;;;;;5.47;0.95;;;14.10;88.90;;;;;;5073955;28;20024;-79
2022/07/27 01:56:32;;;;;;;5.30;0.90;;;14.10;88.90;;;;;;5073928;28;20028;-79
2022/07/27 01:58:58;;;;;;;3.85;1.02;;;14.10;88.80;;;;;;5073687;28;20052;-80
2022/07/27 02:01:24;;;;;;;5.65;1.08;;;14.10;88.90;;;;;;5073737;28;20102;-79
2022/07/27 02:03:50;;;;;;;4.75;0.90;;;14.00;88.80;;;;;;5073654;28;20464;-79
2022/07/27 02:06:15;;;;;;;3.13;0.88;;;14.00;88.90;;;;;;5089348;28;20020;-78
2022/07/27 02:08:41;;;;;;;3.72;0.90;;;14.00;88.90;;;;;;5073654;28;20025;-79
2022/07/27 02:13:51;;;;;;;2.15;0.60;;;14.00;89.00;;;;;;5073676;28;20043;-79
2022/07/27 02:16:17;;;;;;;3.30;1.00;;;14.00;89.00;;;;;;5089418;28;20029;-79
2022/07/27 02:18:43;;;;;;;4.55;1.00;;;14.00;89.10;;;;;;5055611;28;20060;-79
2022/07/27 02:21:09;;;;;;;4.72;1.80;;;14.00;89.30;;;;;;5073940;28;20037;-79
2022/07/27 02:23:36;;;;;;;4.88;1.27;;;14.00;89.60;;;;;;5089061;28;20035;-79
2022/07/27 02:26:03;;;;;;;7.20;1.63;;;13.90;89.80;;;;;;5055487;28;20039;-79
2022/07/27 02:28:29;;;;;;;8.02;1.90;;;13.90;90.00;;;;;;5073449;28;20059;-79
2022/07/27 02:30:54;;;;;;;5.68;1.50;;;13.90;90.00;;;;;;5073494;28;20052;-79
2022/07/27 02:33:20;;;;;;;8.75;1.73;;;13.90;90.10;;;;;;5073646;28;20545;-78
2022/07/27 02:35:46;;;;;;;7.65;1.40;;;13.90;90.20;;;;;;5089059;28;20465;-79
2022/07/27 02:38:11;;;;;;;7.13;1.90;;;13.90;90.30;;;;;;5072391;28;20028;-79
2022/07/27 02:40:37;;;;;;;5.53;1.50;;;13.90;90.40;;;;;;5072545;28;20028;-79
2022/07/27 02:43:03;;;;;;;2.83;1.65;;;13.90;90.40;;;;;;5073537;28;20492;-79
2022/07/27 02:45:28;;;;;;;6.57;1.40;;;13.90;90.50;;;;;;5088866;28;20032;-78
2022/07/27 02:47:54;;;;;;;5.60;1.77;;;13.90;90.50;;;;;;5073314;28;20032;-78
2022/07/27 02:50:19;;;;;;;5.85;1.40;;;13.90;90.50;;;;;;5073401;28;20029;-78
2022/07/27 02:52:45;;;;;;;5.38;1.75;;;13.90;90.50;;;;;;5073274;28;20043;-78
2022/07/27 02:55:11;;;;;;;3.88;1.42;;;13.90;90.90;;;;;;5088834;28;20094;-79
2022/07/27 02:57:39;;;;;;;5.72;1.15;;;13.90;90.70;;;;;;5073181;28;20170;-79
2022/07/27 03:00:11;;;;;;;7.35;1.00;;;13.80;90.70;;;;;;5071213;28;20060;-79
2022/07/27 03:02:37;;;;;;;3.03;0.93;;;13.90;90.80;;;;;;5073138;28;20024;-79
2022/07/27 03:05:04;;;;;;;4.38;1.10;;;13.80;90.80;;;;;;5073154;28;20102;-79
2022/07/27 03:07:30;;;;;;;6.18;1.17;;;13.80;90.80;;;;;;5073009;28;20033;-79
2022/07/27 03:09:55;;;;;;;8.35;1.25;;;13.80;90.90;;;;;;5088597;28;20035;-79
2022/07/27 03:12:21;;;;;;;4.75;1.05;;;13.70;90.90;;;;;;5072999;28;20032;-79
2022/07/27 03:14:47;;;;;;;4.10;1.30;;;13.70;91.00;;;;;;5088777;28;20369;-79
2022/07/27 03:17:12;;;;;;;2.45;1.00;;;13.70;91.00;;;;;;5071612;28;20133;-79
2022/07/27 03:19:38;;;;;;;3.30;1.08;;;13.70;91.10;;;;;;5072973;28;20033;-79
2022/07/27 03:22:03;;;;;;;5.20;0.98;;;13.70;91.20;;;;;;5088574;28;20059;-79
2022/07/27 03:24:29;;;;;;;5.78;0.85;;;13.70;91.20;;;;;;5073018;28;20097;-79
2022/07/27 03:26:55;;;;;;;7.20;1.30;;;13.70;91.30;;;;;;5088584;28;20025;-79
2022/07/27 03:29:20;;;;;;;9.45;1.13;;;13.60;91.30;;;;;;5088523;28;20396;-79
2022/07/27 03:31:46;;;;;;;4.20;0.90;;;13.60;91.30;;;;;;5072854;28;20032;-79
2022/07/27 03:34:12;;;;;;;6.03;0.90;;;13.60;91.50;;;;;;5073273;28;20044;-79
2022/07/27 03:36:37;;;;;;;4.72;1.02;;;13.60;91.50;;;;;;5088471;28;20029;-79
2022/07/27 03:39:03;;;;;;;4.57;1.02;;;13.50;91.60;;;;;;5072810;28;20064;-79
2022/07/27 03:41:28;;;;;;;4.60;2.10;;;13.60;91.60;;;;;;5072789;28;20366;-79
2022/07/27 03:43:54;;;;;;;4.93;1.02;;;13.50;91.70;;;;;;5072676;28;20055;-79
2022/07/27 03:46:20;;;;;;;6.20;1.05;;;13.50;91.80;;;;;;5088876;28;20112;-79
2022/07/27 03:48:45;;;;;;;5.03;1.15;;;13.50;91.80;;;;;;5072895;28;20060;-79
2022/07/27 03:51:11;;;;;;;3.25;0.90;;;13.50;91.90;;;;;;5074276;28;20024;-79
2022/07/27 03:53:36;;;;;;;3.95;1.00;;;13.50;91.90;;;;;;5091730;28;20032;-79
2022/07/27 03:56:02;;;;;;;4.80;1.10;;;13.50;91.90;;;;;;5076618;28;20429;-79
2022/07/27 03:58:28;;;;;;;6.50;1.45;;;13.50;92.00;;;;;;5091608;28;20070;-79
2022/07/27 04:00:53;;;;;;;4.72;1.27;;;13.40;92.00;;;;;;5076298;28;20032;-80
2022/07/27 04:03:19;;;;;;;3.83;1.25;;;13.40;92.00;;;;;;5075969;28;20388;-80
2022/07/27 04:05:45;;;;;;;3.25;0.85;;;13.40;92.20;;;;;;5076040;28;20107;-80
2022/07/27 04:08:10;;;;;;;6.55;1.30;;;13.40;92.30;;;;;;5092172;28;20025;-79
2022/07/27 04:10:36;;;;;;;5.15;1.10;;;13.50;92.30;;;;;;5076017;28;20026;-79
2022/07/27 04:13:01;;;;;;;4.20;1.02;;;13.40;92.40;;;;;;5075837;28;20029;-79
2022/07/27 04:15:28;;;;;;;2.53;0.90;;;13.40;92.40;;;;;;5075763;28;20078;-80
2022/07/27 04:17:53;;;;;;;6.05;1.10;;;13.40;92.50;;;;;;5075796;28;20074;-80
2022/07/27 04:20:19;;;;;;;4.53;1.10;;;13.50;92.70;;;;;;5075743;28;20028;-80
2022/07/27 04:22:44;;;;;;;3.15;0.90;;;13.50;92.70;;;;;;5075855;28;20484;-79
2022/07/27 04:25:10;;;;;;;4.25;0.88;;;13.50;92.90;;;;;;5075708;28;20017;-79
2022/07/27 04:27:36;;;;;;;7.32;1.30;;;13.50;92.90;;;;;;5075904;28;20043;-79
2022/07/27 04:30:03;;;;;;;4.47;0.77;;;13.50;92.90;;;;;;5091260;28;20427;-79
2022/07/27 04:32:29;;;;;;;2.53;0.77;;;13.60;92.90;;;;;;5075833;28;20017;-79
2022/07/27 04:34:55;;;;;;;6.22;1.23;;;13.60;92.90;;;;;;5091691;28;20069;-79
2022/07/27 04:37:20;;;;;;;4.35;1.10;;;13.60;93.00;;;;;;5075411;28;20490;-79
2022/07/27 04:39:46;;;;;;;7.10;1.10;;;13.60;93.10;;;;;;5075313;28;20025;-79
2022/07/27 04:42:12;;;;;;;4.97;1.25;;;13.60;93.10;;;;;;5075204;28;20472;-79
2022/07/27 04:44:37;;;;;;;8.25;1.55;;;13.60;93.10;;;;;;5075427;28;20017;-73
2022/07/27 04:47:03;;;;;;;5.60;1.10;;;13.60;93.10;;;;;;5074087;28;20031;-73
2022/07/27 04:49:28;;;;;;;3.38;1.10;;;13.60;93.10;;;;;;5075421;28;20032;-72
2022/07/27 04:51:54;;;;;;;4.90;1.17;;;13.60;93.20;;;;;;5057072;28;20425;-73
2022/07/27 04:54:20;;;;;;;4.10;1.17;;;13.60;93.20;;;;;;5090888;28;20036;-73
2022/07/27 04:56:45;;;;;;;4.88;1.10;;;13.60;93.30;;;;;;5084882;28;20012;-73
2022/07/27 04:59:11;;;;;;;3.30;1.00;;;13.60;93.30;;;;;;5072490;28;20083;-73
2022/07/27 05:01:36;;;;;;;3.90;1.05;;;13.60;93.30;;;;;;5051358;28;20033;-73
2022/07/27 05:04:03;;;;;;;3.33;1.30;;;13.60;93.40;;;;;;5069336;28;20029;-73
2022/07/27 05:06:31;;;;;;;3.20;1.00;;;13.60;93.40;;;;;;5074631;28;20437;-79
2022/07/27 05:08:57;;;;;;;3.60;1.20;;;13.70;93.50;;;;;;5053415;28;20027;-79
2022/07/27 05:11:23;;;;;;;3.70;0.90;;;13.70;93.50;;;;;;5054702;28;20100;-79
2022/07/27 05:13:49;;;;;;;4.25;1.08;;;13.70;93.60;;;;;;5054640;28;20036;-79
2022/07/27 05:16:14;;;;;;;3.83;1.40;;;13.70;93.60;;;;;;5054520;28;20435;-79
2022/07/27 05:18:40;;;;;;;4.43;1.05;;;13.70;93.60;;;;;;5044221;28;20029;-79
2022/07/27 05:21:07;;;;;;;2.78;0.82;;;13.70;93.60;;;;;;5074449;28;20074;-79
2022/07/27 05:23:33;;;;;;;8.65;1.10;;;13.70;93.60;;;;;;5073648;28;20154;-79
2022/07/27 05:25:58;;;;;;;6.38;0.82;;;13.80;93.70;;;;;;5061398;28;20057;-79
2022/07/27 05:28:24;;;;;;;5.40;0.98;;;13.80;93.60;;;;;;5054219;28;20481;-79
2022/07/27 05:30:50;;;;;;;6.57;1.13;;;13.80;93.60;;;;;;5054505;28;20029;-79
2022/07/27 05:33:16;;;;;;;3.08;0.95;;;13.90;93.60;;;;;;5036453;28;20033;-78
2022/07/27 05:35:41;;;;;;;6.53;0.93;;;13.90;93.50;;;;;;5054236;28;20032;-79
2022/07/27 05:38:07;;;;;;;3.30;0.82;;;13.90;93.50;;;;;;5052923;28;20065;-79
2022/07/27 05:40:33;;;;;;;5.03;1.10;;;14.00;93.50;;;;;;5054311;28;20025;-79
2022/07/27 05:42:58;;;;;;;2.58;0.73;;;14.00;93.40;;;;;;5054047;28;20492;-78
2022/07/27 05:45:25;;;;;;;3.63;1.02;;;14.00;93.40;;;;;;5054072;28;20389;-78
2022/07/27 05:47:51;;;;;;;5.40;1.42;;;14.10;93.40;;;;;;5053907;28;20036;-78
2022/07/27 05:50:17;;;;;;;4.15;1.30;;;14.10;93.60;;;;;;5052736;28;20804;-79
2022/07/27 05:52:43;;;;;;;4.90;1.52;;;14.20;93.40;;;;;;5053992;28;20032;-78
2022/07/27 05:55:09;;;;;;;3.53;0.70;;;14.20;93.30;;;;;;5036341;28;20029;-79
2022/07/27 05:57:36;;;;;;;4.53;1.20;;;14.30;93.30;;;;;;5052646;28;20488;-79
2022/07/27 06:00:05;;;;;;;3.50;0.95;;;14.30;93.30;;;;;;5053754;28;20045;-79
2022/07/27 06:02:31;;;;;;;3.25;0.80;;;14.40;93.30;;;;;;5053837;28;20108;-78
2022/07/27 06:04:56;;;;;;;4.82;0.63;;;14.50;93.30;;;;;;5053810;28;20113;-79
2022/07/27 06:10:07;;;;;;;3.28;0.80;;;14.60;93.40;;;;;;5054367;28;20040;-79
2022/07/27 06:12:41;;;;;;;3.55;0.85;;;14.70;93.40;;;;;;5053657;28;20047;-79
2022/07/27 06:15:08;;;;;;;3.25;0.90;;;14.80;93.40;;;;;;5053418;28;20049;-79
2022/07/27 06:17:34;;;;;;;5.32;0.63;;;14.90;93.40;;;;;;5053487;28;20125;-74
2022/07/27 06:20:00;;;;;;;2.50;0.90;;;14.90;93.40;;;;;;5053624;28;20028;-74
2022/07/27 06:22:25;;;;;;;2.75;0.70;;;15.10;93.70;;;;;;5053759;28;20040;-75
2022/07/27 06:24:51;;;;;;;4.47;0.68;;;15.10;93.40;;;;;;5040207;28;20028;-75
2022/07/27 06:27:17;;;;;;;3.42;0.50;;;15.20;93.40;;;;;;5073419;28;20032;-74
2022/07/27 06:29:42;;;;;;;3.80;0.60;;;15.30;93.40;;;;;;5073404;28;20107;-74
2022/07/27 06:32:08;;;;;;;2.58;0.68;;;15.40;93.40;;;;;;5055450;28;20021;-74
2022/07/27 06:34:34;;;;;;;2.10;0.60;;;15.50;93.40;;;;;;5055414;28;20033;-74
2022/07/27 06:36:59;;;;;;;3.53;0.40;;;15.60;93.30;;;;;;5073321;28;20036;-74
2022/07/27 06:39:26;;;;;;;2.33;0.30;;;15.70;93.20;;;;;;5073253;28;20419;-74
2022/07/27 06:41:52;;;;;;;2.83;0.50;;;15.80;93.10;;;;;;5073134;28;20104;-74
2022/07/27 06:44:17;;;;;;;4.85;0.57;;;15.90;92.90;;;;;;5055211;28;20116;-74
2022/07/27 06:46:43;;;;;;;1.10;0.50;;;16.00;92.70;;;;;;5055360;28;20028;-75
2022/07/27 06:49:08;;;;;;;2.08;0.40;;;16.10;92.40;;;;;;5055001;28;20021;-75
2022/07/27 06:51:34;;;;;;;2.72;0.52;;;16.20;92.20;;;;;;5054805;28;20071;-75
2022/07/27 06:54:00;;;;;;;2.30;0.50;;;16.30;92.10;;;;;;5055395;28;20042;-74
2022/07/27 06:56:25;;;;;;;4.88;0.40;;;16.40;92.20;;;;;;5055376;28;20145;-74
2022/07/27 06:58:51;;;;;;;3.50;0.40;;;16.50;92.00;;;;;;5054866;28;20048;-75
2022/07/27 07:01:17;;;;;;;2.50;0.50;;;16.60;91.60;;;;;;5072815;28;20039;-74
2022/07/27 07:03:43;;;;;;;1.80;0.40;;;16.70;91.40;;;;;;5075296;28;20365;-74
2022/07/27 07:06:09;;;;;;;2.95;0.73;;;16.80;91.30;;;;;;5072754;28;20081;-75
2022/07/27 07:08:34;;;;;;;2.25;0.40;;;17.00;91.10;;;;;;5054769;28;20040;-75
2022/07/27 07:11:00;;;;;;;1.17;0.30;;;17.10;90.90;;;;;;5054696;28;20036;-75
2022/07/27 07:13:26;;;;;;;2.58;0.45;;;17.20;90.70;;;;;;5054543;28;20105;-75
2022/07/27 07:15:51;;;;;;;2.95;0.50;;;17.30;90.40;;;;;;5038845;28;20369;-75
2022/07/27 07:18:17;;;;;;;1.25;0.30;;;17.40;90.20;;;;;;5072843;28;20386;-74
2022/07/27 07:20:43;;;;;;;1.70;0.30;;;17.60;89.80;;;;;;5038834;28;20485;-75
2022/07/27 07:23:09;;;;;;;2.63;0.38;;;17.70;88.60;;;;;;5073095;28;20036;-75
2022/07/27 07:25:36;;;;;;;2.85;0.40;;;17.80;87.80;;;;;;5073942;28;20407;-75
2022/07/27 07:28:03;;;;;;;2.13;0.30;;;17.90;87.10;;;;;;5076635;28;20082;-75
2022/07/27 07:30:29;;;;;;;3.08;0.43;;;18.00;86.60;;;;;;5058028;28;20025;-76
2022/07/27 07:32:55;;;;;;;4.15;0.57;;;18.10;86.00;;;;;;5057608;28;20485;-75
2022/07/27 07:35:21;;;;;;;2.35;0.30;;;18.20;85.20;;;;;;5076553;28;20033;-75
2022/07/27 07:37:47;;;;;;;4.50;0.40;;;18.40;84.50;;;;;;5076243;28;20089;-75
2022/07/27 07:40:13;;;;;;;2.08;0.30;;;18.50;83.70;;;;;;5058707;28;20048;-75
2022/07/27 07:43:00;;;;;;;2.40;0.40;;;18.60;82.90;;;;;;5076083;28;20146;-75
2022/07/27 07:45:26;;;;;;;2.05;0.40;;;18.70;82.00;;;;;;5071314;28;20044;-74
2022/07/27 07:47:52;;;;;;;3.83;0.40;;;18.80;81.20;;;;;;5076158;28;20078;-75
2022/07/27 07:50:19;;;;;;;2.50;0.40;;;18.80;80.20;;;;;;5075923;28;20021;-75
2022/07/27 07:52:47;;;;;;;2.67;0.50;;;18.80;79.30;;;;;;5058442;28;20057;-75
2022/07/27 07:55:12;;;;;;;1.13;0.30;;;18.80;78.40;;;;;;5076308;28;20028;-76
2022/07/27 07:57:38;;;;;;;2.08;0.43;;;18.80;78.10;;;;;;5058551;28;20037;-74
2022/07/27 08:00:08;;;;;;;2.75;0.45;;;18.80;78.10;;;;;;5058816;28;20052;-74
2022/07/27 08:02:49;;;;;;;4.10;0.50;;;18.80;77.70;;;;;;5057245;28;20388;-74
2022/07/27 08:05:15;;;;;;;3.20;0.40;;;18.80;77.00;;;;;;5073781;28;20077;-74
2022/07/27 08:07:42;;;;;;;3.13;0.50;;;18.70;76.70;;;;;;5057571;28;20135;-75
2022/07/27 08:10:11;;;;;;;1.83;0.40;;;18.70;76.60;;;;;;5075152;28;20017;-75
2022/07/27 08:12:39;;;;;;;2.55;0.40;;;18.70;76.40;;;;;;5074568;28;20028;-74
2022/07/27 08:15:06;;;;;;;2.65;0.60;;;18.70;76.30;;;;;;5075649;28;20106;-74
2022/07/27 08:17:32;;;;;;;2.38;0.43;;;18.70;75.90;;;;;;5058500;28;20029;-74
2022/07/27 08:19:57;;;;;;;2.85;0.30;;;18.80;75.70;;;;;;5075819;28;20025;-74
2022/07/27 08:22:24;;;;;;;2.55;0.43;;;18.80;75.70;;;;;;5057905;28;20403;-74
2022/07/27 08:24:49;;;;;;;4.32;0.50;;;18.80;75.60;;;;;;5058035;28;20066;-74
2022/07/27 08:27:15;;;;;;;2.67;0.50;;;18.90;75.60;;;;;;5058341;28;20025;-74
2022/07/27 08:29:41;;;;;;;1.52;0.30;;;18.90;75.40;;;;;;5076158;28;20460;-73
2022/07/27 08:32:06;;;;;;;3.20;0.60;;;19.00;75.40;;;;;;5075596;28;20062;-74
2022/07/27 08:34:32;;;;;;;3.25;0.50;;;19.10;75.20;;;;;;5075431;28;20028;-75
2022/07/27 08:36:58;;;;;;;2.13;0.40;;;19.20;74.50;;;;;;5091558;28;20036;-74
2022/07/27 08:39:24;;;;;;;3.95;0.75;;;19.30;74.10;;;;;;5075727;28;20028;-74
2022/07/27 08:41:52;;;;;;;1.90;0.30;;;19.40;73.90;;;;;;5057791;28;20028;-74
2022/07/27 08:44:23;;;;;;;3.40;0.40;;;19.40;73.30;;;;;;5075426;28;20024;-74
2022/07/27 08:46:50;;;;;;;1.77;0.35;;;19.50;72.90;;;;;;5073864;28;20054;-74
2022/07/27 08:49:17;;;;;;;3.65;0.40;;;19.60;72.50;;;;;;5075759;28;20467;-74
2022/07/27 08:51:43;;;;;;;2.33;0.40;;;19.60;72.20;;;;;;5073637;28;20031;-74
2022/07/27 08:54:10;;;;;;;2.28;0.50;;;19.70;71.70;;;;;;5064509;28;20033;-75
2022/07/27 08:56:36;;;;;;;2.70;0.40;;;19.70;71.30;;;;;;5057181;28;20071;-74
2022/07/27 08:59:03;;;;;;;2.20;0.38;;;19.70;71.20;;;;;;5069260;28;20052;-74
2022/07/27 09:01:31;;;;;;;1.48;0.40;;;19.80;70.80;;;;;;5074923;28;20533;-74
2022/07/27 09:03:57;;;;;;;1.67;0.30;;;19.80;70.30;;;;;;5056454;28;20036;-74
2022/07/27 09:06:40;;;;;;;5.18;0.63;;;19.70;69.60;;;;;;5073444;28;20021;-74
2022/07/27 09:09:05;;;;;;;2.75;0.50;;;19.70;69.20;;;;;;5074509;28;20099;-74
2022/07/27 09:11:31;;;;;;;2.80;0.60;;;19.60;68.70;;;;;;5074923;28;20053;-74
2022/07/27 09:14:02;;;;;;;4.43;0.45;;;19.60;68.90;;;;;;5074824;28;20335;-74
2022/07/27 09:16:31;;;;;;;5.82;1.00;;;19.60;69.00;;;;;;5040493;28;20037;-74
2022/07/27 09:19:05;;;;;;;2.75;0.40;;;19.70;69.10;;;;;;5074868;28;20451;-75
2022/07/27 09:21:32;;;;;;;5.75;1.05;;;19.70;68.70;;;;;;5073146;28;20491;-75
2022/07/27 09:23:58;;;;;;;3.25;0.43;;;19.80;68.20;;;;;;5073425;28;20032;-76
2022/07/27 09:26:26;;;;;;;1.80;0.30;;;19.90;67.90;;;;;;5057010;28;20548;-75
2022/07/27 09:28:59;;;;;;;3.00;0.40;;;20.00;67.70;;;;;;5074494;28;20480;-74
2022/07/27 09:31:25;;;;;;;5.60;0.60;;;20.00;67.60;;;;;;5074700;28;20096;-75
2022/07/27 09:33:54;;;;;;;3.88;0.38;;;20.10;66.80;;;;;;5056748;28;20056;-75
2022/07/27 09:36:22;;;;;;;2.63;0.55;;;20.20;66.40;;;;;;5056477;28;20421;-80
2022/07/27 09:38:58;;;;;;;2.97;0.50;;;20.30;66.10;;;;;;5074479;28;20162;-80
2022/07/27 09:41:25;;;;;;;3.95;0.57;;;20.40;66.00;;;;;;5056326;28;20032;-80
2022/07/27 09:43:53;;;;;;;1.55;0.50;;;20.60;65.50;;;;;;5074361;28;20020;-81
2022/07/27 09:46:36;;;;;;;3.20;0.40;;;20.60;65.10;;;;;;5056557;28;20028;-81
2022/07/27 09:49:02;;;;;;;2.93;0.40;;;20.70;64.80;;;;;;5055614;28;20381;-79
2022/07/27 09:51:28;;;;;;;3.35;0.40;;;20.70;64.50;;;;;;5074251;28;20145;-80
2022/07/27 09:53:56;;;;;;;4.63;0.52;;;20.70;64.20;;;;;;5074058;28;20025;-80
2022/07/27 09:56:27;;;;;;;5.22;0.60;;;20.60;63.90;;;;;;5073996;28;20384;-80
2022/07/27 09:58:58;;;;;;;4.38;0.40;;;20.50;63.60;;;;;;5073631;28;20123;-80
2022/07/27 10:01:27;;;;;;;3.95;0.60;;;20.40;64.00;;;;;;5074340;28;20472;-79
2022/07/27 10:03:55;;;;;;;4.65;0.68;;;20.20;63.80;;;;;;5073776;28;20100;-80
2022/07/27 10:06:22;;;;;;;5.78;0.70;;;20.10;63.30;;;;;;5056246;28;20025;-80
2022/07/27 10:08:50;;;;;;;2.65;0.40;;;20.10;63.50;;;;;;5073697;28;20134;-81
2022/07/27 10:11:17;;;;;;;7.97;0.75;;;20.00;63.00;;;;;;5055623;28;20032;-79
2022/07/27 10:13:42;;;;;;;1.98;0.30;;;20.00;62.60;;;;;;5073624;28;20046;-79
2022/07/27 10:16:20;;;;;;;2.92;0.65;;;20.00;62.70;;;;;;5073612;28;20512;-79
2022/07/27 10:18:57;;;;;;;4.43;0.38;;;20.00;62.90;;;;;;5073711;28;20028;-79
2022/07/27 10:21:23;;;;;;;3.00;0.60;;;20.00;62.90;;;;;;5073677;28;20029;-79
2022/07/27 10:24:00;;;;;;;2.60;0.40;;;20.10;62.90;;;;;;5073538;28;20029;-80
2022/07/27 10:26:29;;;;;;;2.90;0.38;;;20.20;62.90;;;;;;5073358;28;20078;-79
2022/07/27 10:28:59;;;;;;;4.13;0.90;;;20.20;62.90;;;;;;5073433;28;20044;-80
2022/07/27 10:31:30;;;;;;;3.35;0.25;;;20.30;62.00;;;;;;5073514;28;20091;-81
2022/07/27 10:33:59;;;;;;;2.00;0.40;;;20.40;61.30;;;;;;5073418;28;20039;-82
2022/07/27 10:36:28;;;;;;;1.88;0.30;;;20.50;60.30;;;;;;5073439;28;20059;-82
2022/07/27 10:38:55;;;;;;;2.60;0.40;;;20.60;59.50;;;;;;5073589;28;20078;-82
2022/07/27 10:41:26;;;;;;;2.75;0.45;;;20.70;58.80;;;;;;5073048;28;20021;-81
2022/07/27 10:44:19;;;;;;;2.15;0.30;;;21.10;58.80;;;;;;5073061;28;20028;-84
2022/07/27 10:46:55;;;;;;;4.35;0.40;;;21.40;58.40;;;;;;5046174;28;20060;-82
2022/07/27 10:49:27;;;;;;;2.22;0.40;;;21.80;57.70;;;;;;5049885;28;20039;-83
2022/07/27 10:51:57;;;;;;;2.35;0.20;;;22.20;57.30;;;;;;5072987;28;20483;-81
2022/07/27 10:54:31;;;;;;;1.83;0.30;;;22.50;57.10;;;;;;5042343;28;20068;-81
2022/07/27 10:56:59;;;;;;;2.45;0.32;;;22.80;56.80;;;;;;5064923;28;20020;-82
2022/07/27 10:59:47;;;;;;;1.05;0.22;;;23.30;56.90;;;;;;5072760;28;20110;-81
2022/07/27 11:02:14;;;;;;;1.35;0.47;;;24.00;56.00;;;;;;5075161;28;20074;-81
2022/07/27 11:05:02;;;;;;;1.98;0.30;;;25.00;56.50;;;;;;5061286;28;20024;-81
2022/07/27 11:07:27;;;;;;;1.85;0.30;;;25.90;54.70;;;;;;5076852;28;20045;-82
2022/07/27 11:09:53;;;;;;;2.30;0.40;;;26.70;55.20;;;;;;5059013;28;20369;-81
2022/07/27 11:12:19;;;;;;;4.22;0.43;;;27.40;53.80;;;;;;5064999;28;20037;-82
2022/07/27 11:14:50;;;;;;;3.33;0.40;;;28.10;52.20;;;;;;5073659;28;20032;-84
2022/07/27 11:17:18;;;;;;;2.78;0.50;;;28.80;51.10;;;;;;5077029;28;20034;-83
2022/07/27 11:19:44;;;;;;;2.72;0.40;;;29.50;50.30;;;;;;5074120;28;20033;-84
2022/07/27 11:22:11;;;;;;;2.97;0.40;;;30.20;48.80;;;;;;5065635;28;20032;-83
2022/07/27 11:24:36;;;;;;;2.35;0.40;;;30.90;47.50;;;;;;5074510;28;20021;-83
2022/07/27 11:27:09;;;;;;;1.23;0.28;;;31.20;46.70;;;;;;5063444;28;20070;-82
2022/07/27 11:29:36;;;;;;;2.33;0.40;;;30.90;45.40;;;;;;5042957;28;20028;-82
2022/07/27 11:32:02;;;;;;;2.95;0.50;;;30.40;44.10;;;;;;5059128;28;20027;-83
2022/07/27 11:34:33;;;;;;;2.70;0.30;;;29.90;43.00;;;;;;5071630;28;20052;-82
2022/07/27 11:37:01;;;;;;;1.90;0.30;;;29.30;42.10;;;;;;5056613;28;20033;-83
2022/07/27 11:39:29;;;;;;;2.40;0.50;;;28.70;41.50;;;;;;5074977;28;20035;-83
2022/07/27 11:41:57;;;;;;;2.72;0.28;;;28.20;41.50;;;;;;5076352;28;20104;-83
2022/07/27 11:44:23;;;;;;;3.03;0.30;;;27.70;41.80;;;;;;5063585;28;20025;-82
2022/07/27 11:46:50;;;;;;;1.98;0.30;;;27.30;41.80;;;;;;5056398;28;20025;-82
2022/07/27 11:49:27;;;;;;;1.95;0.30;;;27.00;42.10;;;;;;5059898;28;20023;-82
2022/07/27 11:51:59;;;;;;;0.52;0.10;;;26.70;42.60;;;;;;5055023;28;20119;-82
2022/07/27 11:54:31;;;;;;;1.60;0.40;;;26.50;42.80;;;;;;5073894;28;20020;-81
2022/07/27 11:56:59;;;;;;;1.92;0.40;;;26.40;43.10;;;;;;5076220;28;20032;-81
2022/07/27 11:59:33;;;;;;;1.73;0.30;;;26.30;43.50;;;;;;5075529;28;20040;-84
2022/07/27 12:02:05;;;;;;;1.40;0.20;;;26.30;43.50;;;;;;5064796;28;20025;-80
2022/07/27 12:04:46;;;;;;;2.83;0.35;;;26.30;43.90;;;;;;5054732;28;20025;-80
2022/07/27 12:07:18;;;;;;;0.88;0.30;;;26.30;44.20;;;;;;5053812;28;20159;-80
2022/07/27 12:09:44;;;;;;;1.75;0.25;;;26.30;44.50;;;;;;5060607;28;20039;-81
2022/07/27 12:12:18;;;;;;;1.17;0.30;;;26.50;44.80;;;;;;5061538;28;20405;-81
2022/07/27 12:14:49;;;;;;;0.75;0.30;;;26.70;45.00;;;;;;5076671;28;20389;-82
2022/07/27 12:17:34;;;;;;;2.00;0.40;;;27.40;45.20;;;;;;5074000;28;20025;-82
2022/07/27 12:20:00;;;;;;;0.95;0.20;;;28.20;44.50;;;;;;5074524;28;20020;-82
2022/07/27 12:22:42;;;;;;;0.95;0.30;;;29.10;44.20;;;;;;5074522;28;20017;-81
2022/07/27 12:25:08;;;;;;;2.88;0.50;;;30.10;43.60;;;;;;5062580;28;20473;-82
2022/07/27 12:27:34;;;;;;;2.33;0.38;;;31.00;43.40;;;;;;5063765;28;20032;-82
2022/07/27 12:30:05;;;;;;;2.25;0.40;;;31.60;42.10;;;;;;5066152;28;20436;-81
2022/07/27 12:32:34;;;;;;;2.75;0.40;;;31.50;40.80;;;;;;5068527;28;20847;-81
2022/07/27 12:35:00;;;;;;;2.15;0.38;;;31.30;40.00;;;;;;5061957;28;20035;-83
2022/07/27 12:37:31;;;;;;;2.53;0.30;;;30.70;38.90;;;;;;5067148;28;20025;-81
2022/07/27 12:39:57;;;;;;;1.90;0.40;;;30.10;39.30;;;;;;5072618;28;20033;-83
2022/07/27 12:42:35;;;;;;;1.65;0.30;;;29.40;39.60;;;;;;5073423;28;20032;-82
2022/07/27 12:45:18;;;;;;;2.90;0.35;;;28.80;40.30;;;;;;5054200;28;20058;-83
2022/07/27 12:47:44;;;;;;;1.30;0.35;;;28.20;40.70;;;;;;5054155;28;20465;-82
2022/07/27 12:50:16;;;;;;;0.82;0.20;;;27.70;41.00;;;;;;5061072;28;20492;-81
2022/07/27 12:52:51;;;;;;;2.97;0.45;;;27.20;41.30;;;;;;5056253;28;20036;-82
2022/07/27 12:55:21;;;;;;;1.35;0.40;;;26.80;41.70;;;;;;5072618;28;20017;-81